sensor_id;sensor_type;location;lat;lon;timestamp;pressure;altitude;pressure_sealevel;temperature;humidity
79690;BME280;69156;55.932;-3.238;2024-03-02T00:00:50;98652.00;;;4.89;100.00
79690;BME280;69156;55.932;-3.238;2024-03-02T00:03:16;98670.00;;;4.94;100.00
79690;BME280;69156;55.932;-3.238;2024-03-02T00:05:41;98652.00;;;4.96;100.00
79690;BME280;69156;55.932;-3.238;2024-03-02T00:08:07;98644.00;;;4.84;100.00
79690;BME280;69156;55.932;-3.238;2024-03-02T00:10:36;98647.00;;;4.81;100.00
79690;BME280;69156;55.932;-3.238;2024-03-02T00:13:03;98639.00;;;4.77;100.00
79690;BME280;69156;55.932;-3.238;2024-03-02T00:15:40;98640.00;;;4.82;100.00
79690;BME280;69156;55.932;-3.238;2024-03-02T00:18:07;98632.00;;;4.78;100.00
79690;BME280;69156;55.932;-3.238;2024-03-02T00:20:32;98646.00;;;4.88;100.00
79690;BME280;69156;55.932;-3.238;2024-03-02T00:23:03;98640.00;;;4.79;100.00
79690;BME280;69156;55.932;-3.238;2024-03-02T00:25:39;98633.00;;;4.55;100.00
79690;BME280;69156;55.932;-3.238;2024-03-02T00:28:05;98633.00;;;4.66;100.00
79690;BME280;69156;55.932;-3.238;2024-03-02T00:31:02;98627.00;;;4.64;100.00
79690;BME280;69156;55.932;-3.238;2024-03-02T00:33:32;98632.00;;;4.81;100.00
79690;BME280;69156;55.932;-3.238;2024-03-02T00:35:58;98636.00;;;4.75;100.00
79690;BME280;69156;55.932;-3.238;2024-03-02T00:38:23;98630.00;;;4.83;100.00
79690;BME280;69156;55.932;-3.238;2024-03-02T00:40:49;98632.00;;;4.89;100.00
79690;BME280;69156;55.932;-3.238;2024-03-02T00:43:41;98644.00;;;4.74;100.00
79690;BME280;69156;55.932;-3.238;2024-03-02T00:46:07;98645.00;;;4.83;100.00
79690;BME280;69156;55.932;-3.238;2024-03-02T00:48:33;98650.00;;;4.75;100.00
79690;BME280;69156;55.932;-3.238;2024-03-02T00:50:58;98653.00;;;4.92;100.00
79690;BME280;69156;55.932;-3.238;2024-03-02T00:53:26;98645.00;;;4.83;100.00
79690;BME280;69156;55.932;-3.238;2024-03-02T00:55:52;98653.00;;;4.71;100.00
79690;BME280;69156;55.932;-3.238;2024-03-02T00:58:18;98649.00;;;4.94;100.00
79690;BME280;69156;55.932;-3.238;2024-03-02T01:00:43;98648.00;;;4.79;100.00
79690;BME280;69156;55.932;-3.238;2024-03-02T01:03:09;98653.00;;;4.93;100.00
79690;BME280;69156;55.932;-3.238;2024-03-02T01:05:35;98642.00;;;4.83;100.00
79690;BME280;69156;55.932;-3.238;2024-03-02T01:08:00;98639.00;;;4.78;100.00
79690;BME280;69156;55.932;-3.238;2024-03-02T01:10:26;98644.00;;;4.72;100.00
79690;BME280;69156;55.932;-3.238;2024-03-02T01:12:52;98654.00;;;4.87;100.00
79690;BME280;69156;55.932;-3.238;2024-03-02T01:15:18;98649.00;;;4.87;100.00
79690;BME280;69156;55.932;-3.238;2024-03-02T01:17:43;98647.00;;;4.92;100.00
79690;BME280;69156;55.932;-3.238;2024-03-02T01:20:10;98645.00;;;4.79;100.00
79690;BME280;69156;55.932;-3.238;2024-03-02T01:22:36;98645.00;;;4.98;100.00
79690;BME280;69156;55.932;-3.238;2024-03-02T01:25:01;98663.00;;;4.86;100.00
79690;BME280;69156;55.932;-3.238;2024-03-02T01:27:27;98650.00;;;4.93;100.00
79690;BME280;69156;55.932;-3.238;2024-03-02T01:29:53;98656.00;;;4.92;100.00
79690;BME280;69156;55.932;-3.238;2024-03-02T01:32:18;98653.00;;;4.72;100.00
79690;BME280;69156;55.932;-3.238;2024-03-02T01:34:44;98662.00;;;4.87;100.00
79690;BME280;69156;55.932;-3.238;2024-03-02T01:37:09;98651.00;;;4.78;100.00
79690;BME280;69156;55.932;-3.238;2024-03-02T01:39:35;98655.00;;;4.89;100.00
79690;BME280;69156;55.932;-3.238;2024-03-02T01:42:01;98663.00;;;4.80;100.00
79690;BME280;69156;55.932;-3.238;2024-03-02T01:44:27;98654.00;;;4.85;100.00
79690;BME280;69156;55.932;-3.238;2024-03-02T01:46:52;98659.00;;;4.84;100.00
79690;BME280;69156;55.932;-3.238;2024-03-02T01:49:18;98658.00;;;4.89;100.00
79690;BME280;69156;55.932;-3.238;2024-03-02T01:51:44;98646.00;;;4.92;100.00
79690;BME280;69156;55.932;-3.238;2024-03-02T01:54:09;98639.00;;;4.84;100.00
79690;BME280;69156;55.932;-3.238;2024-03-02T01:56:35;98640.00;;;4.95;100.00
79690;BME280;69156;55.932;-3.238;2024-03-02T01:59:01;98640.00;;;5.09;100.00
79690;BME280;69156;55.932;-3.238;2024-03-02T02:01:27;98640.00;;;5.05;100.00
79690;BME280;69156;55.932;-3.238;2024-03-02T02:03:53;98630.00;;;4.98;100.00
79690;BME280;69156;55.932;-3.238;2024-03-02T02:06:18;98631.00;;;5.12;100.00
79690;BME280;69156;55.932;-3.238;2024-03-02T02:08:44;98628.00;;;5.09;100.00
79690;BME280;69156;55.932;-3.238;2024-03-02T02:11:09;98631.00;;;5.05;100.00
79690;BME280;69156;55.932;-3.238;2024-03-02T02:13:35;98630.00;;;4.89;100.00
79690;BME280;69156;55.932;-3.238;2024-03-02T02:16:05;98621.00;;;4.88;100.00
79690;BME280;69156;55.932;-3.238;2024-03-02T02:18:31;98619.00;;;5.00;100.00
79690;BME280;69156;55.932;-3.238;2024-03-02T02:20:56;98631.00;;;4.87;100.00
79690;BME280;69156;55.932;-3.238;2024-03-02T02:23:22;98618.00;;;4.96;100.00
79690;BME280;69156;55.932;-3.238;2024-03-02T02:25:47;98621.00;;;4.94;100.00
79690;BME280;69156;55.932;-3.238;2024-03-02T02:28:13;98624.00;;;4.98;100.00
79690;BME280;69156;55.932;-3.238;2024-03-02T02:30:39;98624.00;;;4.86;100.00
79690;BME280;69156;55.932;-3.238;2024-03-02T02:33:05;98614.00;;;4.95;100.00
79690;BME280;69156;55.932;-3.238;2024-03-02T02:35:30;98609.00;;;4.85;100.00
79690;BME280;69156;55.932;-3.238;2024-03-02T02:37:57;98606.00;;;4.89;100.00
79690;BME280;69156;55.932;-3.238;2024-03-02T02:40:23;98622.00;;;5.05;100.00
79690;BME280;69156;55.932;-3.238;2024-03-02T02:42:49;98617.00;;;4.92;100.00
79690;BME280;69156;55.932;-3.238;2024-03-02T02:45:15;98614.00;;;4.75;100.00
79690;BME280;69156;55.932;-3.238;2024-03-02T02:47:41;98615.00;;;4.83;100.00
79690;BME280;69156;55.932;-3.238;2024-03-02T02:50:08;98625.00;;;4.97;100.00
79690;BME280;69156;55.932;-3.238;2024-03-02T02:52:35;98611.00;;;5.04;100.00
79690;BME280;69156;55.932;-3.238;2024-03-02T02:55:02;98618.00;;;4.91;100.00
79690;BME280;69156;55.932;-3.238;2024-03-02T02:57:28;98598.00;;;4.86;100.00
79690;BME280;69156;55.932;-3.238;2024-03-02T02:59:54;98605.00;;;4.94;100.00
79690;BME280;69156;55.932;-3.238;2024-03-02T03:02:20;98621.00;;;5.01;100.00
79690;BME280;69156;55.932;-3.238;2024-03-02T03:04:45;98598.00;;;4.85;100.00
79690;BME280;69156;55.932;-3.238;2024-03-02T03:07:11;98593.00;;;4.83;100.00
79690;BME280;69156;55.932;-3.238;2024-03-02T03:09:37;98597.00;;;4.90;100.00
79690;BME280;69156;55.932;-3.238;2024-03-02T03:12:03;98598.00;;;4.86;100.00
79690;BME280;69156;55.932;-3.238;2024-03-02T03:14:29;98590.00;;;4.99;100.00
79690;BME280;69156;55.932;-3.238;2024-03-02T03:16:55;98592.00;;;5.05;100.00
79690;BME280;69156;55.932;-3.238;2024-03-02T03:19:20;98594.00;;;4.87;100.00
79690;BME280;69156;55.932;-3.238;2024-03-02T03:21:46;98591.00;;;4.94;100.00
79690;BME280;69156;55.932;-3.238;2024-03-02T03:24:11;98596.00;;;4.98;100.00
79690;BME280;69156;55.932;-3.238;2024-03-02T03:26:37;98590.00;;;4.81;100.00
79690;BME280;69156;55.932;-3.238;2024-03-02T03:29:03;98581.00;;;4.88;100.00
79690;BME280;69156;55.932;-3.238;2024-03-02T03:31:29;98580.00;;;4.82;100.00
79690;BME280;69156;55.932;-3.238;2024-03-02T03:33:54;98584.00;;;4.98;100.00
79690;BME280;69156;55.932;-3.238;2024-03-02T03:36:20;98574.00;;;5.08;100.00
79690;BME280;69156;55.932;-3.238;2024-03-02T03:38:46;98579.00;;;4.99;100.00
79690;BME280;69156;55.932;-3.238;2024-03-02T03:41:11;98574.00;;;4.91;100.00
79690;BME280;69156;55.932;-3.238;2024-03-02T03:43:37;98571.00;;;5.05;100.00
79690;BME280;69156;55.932;-3.238;2024-03-02T03:46:03;98578.00;;;5.06;100.00
79690;BME280;69156;55.932;-3.238;2024-03-02T03:48:28;98564.00;;;5.06;100.00
79690;BME280;69156;55.932;-3.238;2024-03-02T03:50:54;98571.00;;;5.04;100.00
79690;BME280;69156;55.932;-3.238;2024-03-02T03:53:20;98561.00;;;4.99;100.00
79690;BME280;69156;55.932;-3.238;2024-03-02T03:55:45;98566.00;;;5.06;100.00
79690;BME280;69156;55.932;-3.238;2024-03-02T03:58:11;98565.00;;;5.14;100.00
79690;BME280;69156;55.932;-3.238;2024-03-02T04:00:37;98563.00;;;5.20;100.00
79690;BME280;69156;55.932;-3.238;2024-03-02T04:03:03;98568.00;;;5.12;100.00
79690;BME280;69156;55.932;-3.238;2024-03-02T04:05:29;98563.00;;;5.05;100.00
79690;BME280;69156;55.932;-3.238;2024-03-02T04:07:54;98561.00;;;5.05;100.00
79690;BME280;69156;55.932;-3.238;2024-03-02T04:10:20;98570.00;;;5.11;100.00
79690;BME280;69156;55.932;-3.238;2024-03-02T04:12:45;98573.00;;;5.20;100.00
79690;BME280;69156;55.932;-3.238;2024-03-02T04:15:11;98577.00;;;5.09;100.00
79690;BME280;69156;55.932;-3.238;2024-03-02T04:17:37;98578.00;;;5.10;100.00
79690;BME280;69156;55.932;-3.238;2024-03-02T04:20:03;98580.00;;;5.17;100.00
79690;BME280;69156;55.932;-3.238;2024-03-02T04:22:29;98579.00;;;5.25;100.00
79690;BME280;69156;55.932;-3.238;2024-03-02T04:24:54;98579.00;;;5.16;100.00
79690;BME280;69156;55.932;-3.238;2024-03-02T04:27:20;98582.00;;;5.16;100.00
79690;BME280;69156;55.932;-3.238;2024-03-02T04:29:46;98585.00;;;5.22;100.00
79690;BME280;69156;55.932;-3.238;2024-03-02T04:32:11;98591.00;;;5.24;100.00
79690;BME280;69156;55.932;-3.238;2024-03-02T04:34:37;98588.00;;;5.16;100.00
79690;BME280;69156;55.932;-3.238;2024-03-02T04:37:03;98598.00;;;5.30;100.00
79690;BME280;69156;55.932;-3.238;2024-03-02T04:39:28;98601.00;;;5.26;100.00
79690;BME280;69156;55.932;-3.238;2024-03-02T04:41:54;98601.00;;;5.30;100.00
79690;BME280;69156;55.932;-3.238;2024-03-02T04:44:19;98604.00;;;5.39;100.00
79690;BME280;69156;55.932;-3.238;2024-03-02T04:46:45;98600.00;;;5.34;100.00
79690;BME280;69156;55.932;-3.238;2024-03-02T04:49:11;98599.00;;;5.37;100.00
79690;BME280;69156;55.932;-3.238;2024-03-02T04:51:37;98598.00;;;5.42;100.00
79690;BME280;69156;55.932;-3.238;2024-03-02T04:54:02;98597.00;;;5.40;100.00
79690;BME280;69156;55.932;-3.238;2024-03-02T04:56:28;98597.00;;;5.30;100.00
79690;BME280;69156;55.932;-3.238;2024-03-02T04:58:54;98596.00;;;5.30;100.00
79690;BME280;69156;55.932;-3.238;2024-03-02T05:01:19;98595.00;;;5.23;100.00
79690;BME280;69156;55.932;-3.238;2024-03-02T05:03:45;98595.00;;;5.18;100.00
79690;BME280;69156;55.932;-3.238;2024-03-02T05:06:11;98599.00;;;5.16;100.00
79690;BME280;69156;55.932;-3.238;2024-03-02T05:08:36;98603.00;;;5.07;100.00
79690;BME280;69156;55.932;-3.238;2024-03-02T05:11:02;98599.00;;;5.08;100.00
79690;BME280;69156;55.932;-3.238;2024-03-02T05:13:28;98600.00;;;4.92;100.00
79690;BME280;69156;55.932;-3.238;2024-03-02T05:15:53;98602.00;;;4.95;100.00
79690;BME280;69156;55.932;-3.238;2024-03-02T05:18:19;98603.00;;;5.03;100.00
79690;BME280;69156;55.932;-3.238;2024-03-02T05:20:45;98603.00;;;4.95;100.00
79690;BME280;69156;55.932;-3.238;2024-03-02T05:23:10;98604.00;;;5.03;100.00
79690;BME280;69156;55.932;-3.238;2024-03-02T05:25:36;98605.00;;;5.02;100.00
79690;BME280;69156;55.932;-3.238;2024-03-02T05:28:02;98608.00;;;5.06;100.00
79690;BME280;69156;55.932;-3.238;2024-03-02T05:30:27;98614.00;;;4.99;100.00
79690;BME280;69156;55.932;-3.238;2024-03-02T05:32:53;98617.00;;;5.11;100.00
79690;BME280;69156;55.932;-3.238;2024-03-02T05:35:19;98619.00;;;5.10;100.00
79690;BME280;69156;55.932;-3.238;2024-03-02T05:37:44;98622.00;;;5.12;100.00
79690;BME280;69156;55.932;-3.238;2024-03-02T05:40:10;98622.00;;;5.07;100.00
79690;BME280;69156;55.932;-3.238;2024-03-02T05:42:36;98626.00;;;4.99;100.00
79690;BME280;69156;55.932;-3.238;2024-03-02T05:45:02;98625.00;;;4.66;100.00
79690;BME280;69156;55.932;-3.238;2024-03-02T05:47:28;98633.00;;;4.93;100.00
79690;BME280;69156;55.932;-3.238;2024-03-02T05:49:53;98631.00;;;4.77;100.00
79690;BME280;69156;55.932;-3.238;2024-03-02T05:52:19;98632.00;;;4.82;100.00
79690;BME280;69156;55.932;-3.238;2024-03-02T05:54:45;98635.00;;;4.74;100.00
79690;BME280;69156;55.932;-3.238;2024-03-02T05:57:10;98638.00;;;4.65;100.00
79690;BME280;69156;55.932;-3.238;2024-03-02T05:59:36;98645.00;;;4.66;100.00
79690;BME280;69156;55.932;-3.238;2024-03-02T06:02:02;98652.00;;;4.46;100.00
79690;BME280;69156;55.932;-3.238;2024-03-02T06:04:27;98653.00;;;4.44;100.00
79690;BME280;69156;55.932;-3.238;2024-03-02T06:06:53;98653.00;;;4.49;100.00
79690;BME280;69156;55.932;-3.238;2024-03-02T06:09:19;98654.00;;;4.24;100.00
79690;BME280;69156;55.932;-3.238;2024-03-02T06:11:44;98657.00;;;4.41;100.00
79690;BME280;69156;55.932;-3.238;2024-03-02T06:14:10;98659.00;;;4.29;100.00
79690;BME280;69156;55.932;-3.238;2024-03-02T06:16:36;98666.00;;;4.26;100.00
79690;BME280;69156;55.932;-3.238;2024-03-02T06:19:01;98667.00;;;4.34;100.00
79690;BME280;69156;55.932;-3.238;2024-03-02T06:21:27;98666.00;;;4.24;100.00
79690;BME280;69156;55.932;-3.238;2024-03-02T06:23:53;98665.00;;;4.20;100.00
79690;BME280;69156;55.932;-3.238;2024-03-02T06:26:19;98668.00;;;4.08;100.00
79690;BME280;69156;55.932;-3.238;2024-03-02T06:28:45;98670.00;;;4.04;100.00
79690;BME280;69156;55.932;-3.238;2024-03-02T06:31:11;98677.00;;;4.03;100.00
79690;BME280;69156;55.932;-3.238;2024-03-02T06:33:37;98678.00;;;3.96;100.00
79690;BME280;69156;55.932;-3.238;2024-03-02T06:36:03;98680.00;;;3.96;100.00
79690;BME280;69156;55.932;-3.238;2024-03-02T06:38:29;98678.00;;;3.92;100.00
79690;BME280;69156;55.932;-3.238;2024-03-02T06:40:55;98679.00;;;3.89;100.00
79690;BME280;69156;55.932;-3.238;2024-03-02T06:43:20;98683.00;;;3.96;100.00
79690;BME280;69156;55.932;-3.238;2024-03-02T06:45:46;98684.00;;;3.82;100.00
79690;BME280;69156;55.932;-3.238;2024-03-02T06:48:12;98682.00;;;3.80;100.00
79690;BME280;69156;55.932;-3.238;2024-03-02T06:50:37;98684.00;;;3.78;100.00
79690;BME280;69156;55.932;-3.238;2024-03-02T06:53:03;98687.00;;;3.73;100.00
79690;BME280;69156;55.932;-3.238;2024-03-02T06:55:29;98689.00;;;3.73;100.00
79690;BME280;69156;55.932;-3.238;2024-03-02T06:57:54;98687.00;;;3.69;100.00
79690;BME280;69156;55.932;-3.238;2024-03-02T07:00:20;98687.00;;;3.65;100.00
79690;BME280;69156;55.932;-3.238;2024-03-02T07:02:46;98685.00;;;3.74;100.00
79690;BME280;69156;55.932;-3.238;2024-03-02T07:05:12;98689.00;;;3.73;100.00
79690;BME280;69156;55.932;-3.238;2024-03-02T07:07:38;98687.00;;;3.58;100.00
79690;BME280;69156;55.932;-3.238;2024-03-02T07:10:04;98689.00;;;3.57;100.00
79690;BME280;69156;55.932;-3.238;2024-03-02T07:12:30;98687.00;;;3.59;100.00
79690;BME280;69156;55.932;-3.238;2024-03-02T07:14:55;98684.00;;;3.64;100.00
79690;BME280;69156;55.932;-3.238;2024-03-02T07:17:21;98689.00;;;3.60;100.00
79690;BME280;69156;55.932;-3.238;2024-03-02T07:19:47;98692.00;;;3.47;100.00
79690;BME280;69156;55.932;-3.238;2024-03-02T07:22:12;98692.00;;;3.57;100.00
79690;BME280;69156;55.932;-3.238;2024-03-02T07:24:40;98693.00;;;3.49;100.00
79690;BME280;69156;55.932;-3.238;2024-03-02T07:27:05;98691.00;;;3.51;100.00
79690;BME280;69156;55.932;-3.238;2024-03-02T07:29:31;98697.00;;;3.62;100.00
79690;BME280;69156;55.932;-3.238;2024-03-02T07:31:57;98702.00;;;3.63;100.00
79690;BME280;69156;55.932;-3.238;2024-03-02T07:34:23;98703.00;;;3.61;100.00
79690;BME280;69156;55.932;-3.238;2024-03-02T07:36:48;98708.00;;;3.62;100.00
79690;BME280;69156;55.932;-3.238;2024-03-02T07:39:14;98710.00;;;3.65;100.00
79690;BME280;69156;55.932;-3.238;2024-03-02T07:41:40;98707.00;;;3.43;100.00
79690;BME280;69156;55.932;-3.238;2024-03-02T07:44:05;98708.00;;;3.57;100.00
79690;BME280;69156;55.932;-3.238;2024-03-02T07:46:31;98709.00;;;3.49;100.00
79690;BME280;69156;55.932;-3.238;2024-03-02T07:48:56;98711.00;;;3.60;100.00
79690;BME280;69156;55.932;-3.238;2024-03-02T07:51:22;98714.00;;;3.57;100.00
79690;BME280;69156;55.932;-3.238;2024-03-02T07:53:48;98716.00;;;3.65;100.00
79690;BME280;69156;55.932;-3.238;2024-03-02T07:56:13;98714.00;;;3.47;100.00
79690;BME280;69156;55.932;-3.238;2024-03-02T07:58:39;98715.00;;;3.49;100.00
79690;BME280;69156;55.932;-3.238;2024-03-02T08:01:05;98718.00;;;3.39;100.00
79690;BME280;69156;55.932;-3.238;2024-03-02T08:03:31;98718.00;;;3.55;100.00
79690;BME280;69156;55.932;-3.238;2024-03-02T08:05:56;98720.00;;;3.56;100.00
79690;BME280;69156;55.932;-3.238;2024-03-02T08:08:22;98723.00;;;3.70;100.00
79690;BME280;69156;55.932;-3.238;2024-03-02T08:10:47;98725.00;;;3.67;100.00
79690;BME280;69156;55.932;-3.238;2024-03-02T08:13:13;98726.00;;;3.53;100.00
79690;BME280;69156;55.932;-3.238;2024-03-02T08:15:39;98725.00;;;3.58;100.00
79690;BME280;69156;55.932;-3.238;2024-03-02T08:18:05;98723.00;;;3.61;100.00
79690;BME280;69156;55.932;-3.238;2024-03-02T08:20:30;98724.00;;;3.67;100.00
79690;BME280;69156;55.932;-3.238;2024-03-02T08:22:56;98724.00;;;3.66;100.00
79690;BME280;69156;55.932;-3.238;2024-03-02T08:25:22;98723.00;;;3.76;100.00
79690;BME280;69156;55.932;-3.238;2024-03-02T08:27:47;98723.00;;;3.85;100.00
79690;BME280;69156;55.932;-3.238;2024-03-02T08:30:14;98721.00;;;3.84;100.00
79690;BME280;69156;55.932;-3.238;2024-03-02T08:32:39;98722.00;;;3.97;100.00
79690;BME280;69156;55.932;-3.238;2024-03-02T08:35:06;98720.00;;;3.86;100.00
79690;BME280;69156;55.932;-3.238;2024-03-02T08:37:32;98722.00;;;3.94;100.00
79690;BME280;69156;55.932;-3.238;2024-03-02T08:39:58;98723.00;;;3.94;100.00
79690;BME280;69156;55.932;-3.238;2024-03-02T08:42:23;98724.00;;;4.04;100.00
79690;BME280;69156;55.932;-3.238;2024-03-02T08:44:49;98725.00;;;4.05;100.00
79690;BME280;69156;55.932;-3.238;2024-03-02T08:47:15;98725.00;;;4.22;100.00
79690;BME280;69156;55.932;-3.238;2024-03-02T08:49:40;98725.00;;;4.37;100.00
79690;BME280;69156;55.932;-3.238;2024-03-02T08:52:06;98728.00;;;4.49;100.00
79690;BME280;69156;55.932;-3.238;2024-03-02T08:54:32;98729.00;;;4.61;100.00
79690;BME280;69156;55.932;-3.238;2024-03-02T08:56:57;98732.00;;;4.68;100.00
79690;BME280;69156;55.932;-3.238;2024-03-02T08:59:23;98730.00;;;4.80;100.00
79690;BME280;69156;55.932;-3.238;2024-03-02T09:01:49;98733.00;;;4.61;100.00
79690;BME280;69156;55.932;-3.238;2024-03-02T09:04:14;98732.00;;;4.64;100.00
79690;BME280;69156;55.932;-3.238;2024-03-02T09:06:40;98733.00;;;4.65;100.00
79690;BME280;69156;55.932;-3.238;2024-03-02T09:09:05;98734.00;;;4.82;100.00
79690;BME280;69156;55.932;-3.238;2024-03-02T09:11:31;98731.00;;;5.06;100.00
79690;BME280;69156;55.932;-3.238;2024-03-02T09:13:57;98732.00;;;5.10;100.00
79690;BME280;69156;55.932;-3.238;2024-03-02T09:16:23;98737.00;;;5.31;100.00
79690;BME280;69156;55.932;-3.238;2024-03-02T09:18:48;98739.00;;;5.46;100.00
79690;BME280;69156;55.932;-3.238;2024-03-02T09:21:14;98743.00;;;5.50;100.00
79690;BME280;69156;55.932;-3.238;2024-03-02T09:23:40;98746.00;;;5.65;100.00
79690;BME280;69156;55.932;-3.238;2024-03-02T09:26:05;98746.00;;;5.67;100.00
79690;BME280;69156;55.932;-3.238;2024-03-02T09:28:31;98745.00;;;5.84;100.00
79690;BME280;69156;55.932;-3.238;2024-03-02T09:30:57;98746.00;;;6.05;100.00
79690;BME280;69156;55.932;-3.238;2024-03-02T09:33:22;98747.00;;;6.12;100.00
79690;BME280;69156;55.932;-3.238;2024-03-02T09:35:48;98750.00;;;5.97;100.00
79690;BME280;69156;55.932;-3.238;2024-03-02T09:38:14;98752.00;;;6.05;100.00
79690;BME280;69156;55.932;-3.238;2024-03-02T09:40:41;98752.00;;;6.08;100.00
79690;BME280;69156;55.932;-3.238;2024-03-02T09:43:08;98754.00;;;6.14;100.00
79690;BME280;69156;55.932;-3.238;2024-03-02T09:45:34;98757.00;;;6.17;100.00
79690;BME280;69156;55.932;-3.238;2024-03-02T09:47:59;98756.00;;;6.20;100.00
79690;BME280;69156;55.932;-3.238;2024-03-02T09:50:25;98757.00;;;6.33;100.00
79690;BME280;69156;55.932;-3.238;2024-03-02T09:52:52;98761.00;;;6.27;100.00
79690;BME280;69156;55.932;-3.238;2024-03-02T09:55:18;98763.00;;;6.38;100.00
79690;BME280;69156;55.932;-3.238;2024-03-02T09:57:45;98764.00;;;6.29;100.00
79690;BME280;69156;55.932;-3.238;2024-03-02T10:00:11;98767.00;;;6.34;100.00
79690;BME280;69156;55.932;-3.238;2024-03-02T10:02:37;98770.00;;;6.37;100.00
79690;BME280;69156;55.932;-3.238;2024-03-02T10:05:03;98773.00;;;6.47;100.00
79690;BME280;69156;55.932;-3.238;2024-03-02T10:07:29;98771.00;;;6.40;100.00
79690;BME280;69156;55.932;-3.238;2024-03-02T10:09:55;98769.00;;;6.53;100.00
79690;BME280;69156;55.932;-3.238;2024-03-02T10:12:20;98766.00;;;6.66;100.00
79690;BME280;69156;55.932;-3.238;2024-03-02T10:14:46;98765.00;;;6.80;100.00
79690;BME280;69156;55.932;-3.238;2024-03-02T10:17:13;98765.00;;;6.88;100.00
79690;BME280;69156;55.932;-3.238;2024-03-02T10:19:39;98768.00;;;7.02;100.00
79690;BME280;69156;55.932;-3.238;2024-03-02T10:22:06;98766.00;;;6.83;100.00
79690;BME280;69156;55.932;-3.238;2024-03-02T10:24:36;98769.00;;;6.76;100.00
79690;BME280;69156;55.932;-3.238;2024-03-02T10:27:07;98770.00;;;6.86;100.00
79690;BME280;69156;55.932;-3.238;2024-03-02T10:29:32;98768.00;;;6.78;100.00
79690;BME280;69156;55.932;-3.238;2024-03-02T10:32:02;98774.00;;;6.84;100.00
79690;BME280;69156;55.932;-3.238;2024-03-02T10:34:27;98771.00;;;6.96;100.00
79690;BME280;69156;55.932;-3.238;2024-03-02T10:36:54;98769.00;;;6.93;100.00
79690;BME280;69156;55.932;-3.238;2024-03-02T10:39:20;98768.00;;;6.84;100.00
79690;BME280;69156;55.932;-3.238;2024-03-02T10:41:48;98769.00;;;7.02;100.00
79690;BME280;69156;55.932;-3.238;2024-03-02T10:44:15;98768.00;;;7.01;100.00
79690;BME280;69156;55.932;-3.238;2024-03-02T10:46:43;98769.00;;;7.17;100.00
79690;BME280;69156;55.932;-3.238;2024-03-02T10:49:10;98769.00;;;7.16;100.00
79690;BME280;69156;55.932;-3.238;2024-03-02T10:51:36;98767.00;;;7.11;100.00
79690;BME280;69156;55.932;-3.238;2024-03-02T10:54:03;98771.00;;;7.21;100.00
79690;BME280;69156;55.932;-3.238;2024-03-02T10:56:30;98766.00;;;6.91;100.00
79690;BME280;69156;55.932;-3.238;2024-03-02T10:59:03;98769.00;;;7.10;100.00
79690;BME280;69156;55.932;-3.238;2024-03-02T11:01:29;98773.00;;;7.07;100.00
79690;BME280;69156;55.932;-3.238;2024-03-02T11:03:58;98774.00;;;6.95;100.00
79690;BME280;69156;55.932;-3.238;2024-03-02T11:06:26;98776.00;;;6.94;100.00
79690;BME280;69156;55.932;-3.238;2024-03-02T11:08:53;98778.00;;;6.89;100.00
79690;BME280;69156;55.932;-3.238;2024-03-02T11:11:27;98782.00;;;6.94;100.00
79690;BME280;69156;55.932;-3.238;2024-03-02T11:13:55;98784.00;;;6.83;100.00
79690;BME280;69156;55.932;-3.238;2024-03-02T11:16:30;98785.00;;;6.88;100.00
79690;BME280;69156;55.932;-3.238;2024-03-02T11:18:57;98789.00;;;6.94;100.00
79690;BME280;69156;55.932;-3.238;2024-03-02T11:21:22;98787.00;;;6.91;100.00
79690;BME280;69156;55.932;-3.238;2024-03-02T11:23:48;98791.00;;;6.94;100.00
79690;BME280;69156;55.932;-3.238;2024-03-02T11:26:17;98792.00;;;7.19;100.00
79690;BME280;69156;55.932;-3.238;2024-03-02T11:28:43;98798.00;;;7.03;100.00
79690;BME280;69156;55.932;-3.238;2024-03-02T11:31:08;98794.00;;;6.95;100.00
79690;BME280;69156;55.932;-3.238;2024-03-02T11:33:34;98793.00;;;6.93;100.00
79690;BME280;69156;55.932;-3.238;2024-03-02T11:36:00;98789.00;;;6.96;100.00
79690;BME280;69156;55.932;-3.238;2024-03-02T11:38:34;98790.00;;;7.16;100.00
79690;BME280;69156;55.932;-3.238;2024-03-02T11:41:01;98798.00;;;7.31;100.00
79690;BME280;69156;55.932;-3.238;2024-03-02T11:43:28;98798.00;;;7.37;100.00
79690;BME280;69156;55.932;-3.238;2024-03-02T11:45:58;98798.00;;;7.20;100.00
79690;BME280;69156;55.932;-3.238;2024-03-02T11:48:24;98801.00;;;7.33;100.00
79690;BME280;69156;55.932;-3.238;2024-03-02T11:50:51;98803.00;;;7.32;100.00
79690;BME280;69156;55.932;-3.238;2024-03-02T11:53:17;98805.00;;;7.22;100.00
79690;BME280;69156;55.932;-3.238;2024-03-02T11:55:44;98804.00;;;7.10;100.00
79690;BME280;69156;55.932;-3.238;2024-03-02T11:58:10;98798.00;;;7.14;100.00
79690;BME280;69156;55.932;-3.238;2024-03-02T12:00:36;98794.00;;;7.11;100.00
79690;BME280;69156;55.932;-3.238;2024-03-02T12:03:04;98788.00;;;7.09;100.00
79690;BME280;69156;55.932;-3.238;2024-03-02T12:05:30;98792.00;;;7.21;100.00
79690;BME280;69156;55.932;-3.238;2024-03-02T12:07:57;98796.00;;;7.18;100.00
79690;BME280;69156;55.932;-3.238;2024-03-02T12:10:23;98795.00;;;7.33;100.00
79690;BME280;69156;55.932;-3.238;2024-03-02T12:12:55;98792.00;;;7.58;100.00
79690;BME280;69156;55.932;-3.238;2024-03-02T12:15:23;98796.00;;;7.58;100.00
79690;BME280;69156;55.932;-3.238;2024-03-02T12:17:48;98795.00;;;7.73;100.00
79690;BME280;69156;55.932;-3.238;2024-03-02T12:20:17;98794.00;;;7.78;100.00
79690;BME280;69156;55.932;-3.238;2024-03-02T12:22:43;98793.00;;;7.99;100.00
79690;BME280;69156;55.932;-3.238;2024-03-02T12:25:09;98794.00;;;8.05;100.00
79690;BME280;69156;55.932;-3.238;2024-03-02T12:27:35;98791.00;;;8.21;100.00
79690;BME280;69156;55.932;-3.238;2024-03-02T12:30:00;98796.00;;;8.18;100.00
79690;BME280;69156;55.932;-3.238;2024-03-02T12:32:26;98798.00;;;7.94;100.00
79690;BME280;69156;55.932;-3.238;2024-03-02T12:34:52;98800.00;;;8.04;100.00
79690;BME280;69156;55.932;-3.238;2024-03-02T12:37:17;98800.00;;;8.05;100.00
79690;BME280;69156;55.932;-3.238;2024-03-02T12:39:44;98797.00;;;7.94;100.00
79690;BME280;69156;55.932;-3.238;2024-03-02T12:42:10;98798.00;;;7.74;100.00
79690;BME280;69156;55.932;-3.238;2024-03-02T12:44:36;98799.00;;;8.03;100.00